Latest Weather Observations for Fortescue Dave Forrest

IDW60801

Issued at 12:05 pm WST Tuesday 2 September 2014 (issued every 30 minutes, with the page automatically refreshed every 10 minutes)

About weather observations | Map of weather stations | Latest weather observations for WA | Other Formats
Station Details ID: 505056 Name: FORTESCUE DAVE FORREST Lat: -22.29 Lon: 119.43 Height: 474.6 m
Data from the previous 72 hours. | See also: Recent months for locations in Western Australia
Date/Time
WST
Temp
°C
App
Temp
°C
Dew
Point
Rel
Hum
%
Delta-T
°C
Wind Press
QNH
hPa
Press
MSL
hPa
Rain
since 9 am
mm
Dir
 
Spd
km/h
Gust
km/h
Spd
kts
Gust
kts
02/12:00pm 31.4 25.1 -6.2 8 16.7 NE 19 28 10 15 1018.5 1016.5 0.0
02/11:30am 30.5 25.0 -5.4 9 16.0 NNE 15 24 8 13 1019.0 1017.0 0.0
02/11:00am 29.3 25.7 -3.4 11 14.9 NNE 6 11 3 6 1019.6 1017.7 0.0
02/10:30am 28.4 24.8 -3.6 12 14.5 E 6 11 3 6 1020.3 1018.3 0.0
02/10:00am 27.3 23.5 -3.5 13 13.8 ESE 7 15 4 8 1020.7 1018.7 0.0
02/09:30am 25.7 21.9 -0.6 17 12.3 SE 9 15 5 8 1020.8 1018.8 0.0
02/09:00am 23.4 18.9 -0.2 21 10.9 S 13 22 7 12 1020.6 1018.6 0.0
02/08:30am 25.4 21.2 -1.0 17 12.3 SSE 11 20 6 11 1019.9 1018.0 0.0
02/08:00am 23.8 21.2 -2.0 18 11.6 SSW 2 4 1 2 1019.5 1017.6 0.0
02/07:30am 21.2 18.1 -2.3 20 10.3 NE 4 6 2 3 1019.3 1017.4 0.0
02/07:00am 16.5 13.0 -3.2 26 8.1 N 6 7 3 4 1018.9 1016.9 0.0
02/06:30am 14.0 10.8 -3.4 30 6.9 NNW 4 6 2 3 1018.9 1016.9 0.0
02/06:00am 15.0 11.4 -3.8 27 7.5 NNE 6 7 3 4 1018.9 1016.9 0.0
02/05:30am 14.5 10.9 -3.6 28 7.2 N 6 7 3 4 1018.4 1016.4 0.0
02/05:00am 14.5 10.9 -3.6 28 7.2 N 6 7 3 4 1018.2 1016.2 0.0
02/04:30am 14.6 11.1 -3.2 29 7.2 NW 6 6 3 3 1018.1 1016.1 0.0
02/04:00am 16.1 13.3 -3.5 26 8.0 NNE 2 4 1 2 1018.1 1016.1 0.0
02/03:30am 16.2 10.1 -3.7 25 8.1 ENE 19 30 10 16 1018.0 1016.0 0.0
02/03:00am 20.4 15.8 -3.9 19 10.2 S 11 15 6 8 1017.6 1015.7 0.0
02/02:30am 20.9 17.2 -4.1 18 10.5 WNW 6 11 3 6 1017.6 1015.7 0.0
02/02:00am 20.9 17.1 -3.9 18 10.5 WNW 7 11 4 6 1017.7 1015.8 0.0
02/01:30am 21.1 16.5 -3.9 18 10.6 W 11 15 6 8 1018.0 1016.0 0.0
02/01:00am 21.8 16.8 -3.9 17 10.9 WNW 13 17 7 9 1018.2 1016.2 0.0
02/12:30am 22.0 17.1 -3.8 17 11.0 WNW 13 17 7 9 1018.3 1016.3 0.0
02/12:00am 21.7 16.6 -5.3 16 11.2 WNW 13 15 7 8 1018.5 1016.5 0.0
 
Date/Time
WST
Temp
°C
App
Temp
°C
Dew
Point
Rel
Hum
%
Delta-T
°C
Wind Press
QNH
hPa
Press
MSL
hPa
Rain
since 9 am
mm
Dir
 
Spd
km/h
Gust
km/h
Spd
kts
Gust
kts
01/11:30pm 19.8 15.4 -6.3 16 10.4 NW 9 11 5 6 1018.6 1016.6 0.0
01/11:00pm 18.9 15.0 -6.1 18 9.9 N 6 9 3 5 1018.6 1016.6 0.0
01/10:30pm 19.7 15.7 -6.1 17 10.3 NNE 7 11 4 6 1018.7 1016.7 0.0
01/10:00pm 22.3 16.6 -7.0 13 11.8 NNE 15 17 8 9 1018.7 1016.7 0.0
01/09:30pm 21.5 17.4 -7.0 14 11.4 N 7 9 4 5 1018.6 1016.6 0.0
01/09:00pm 21.0 16.9 -6.3 15 11.0 NNW 7 9 4 5 1018.4 1016.4 0.0
01/08:30pm 21.9 17.4 -6.7 14 11.6 N 9 11 5 6 1018.3 1016.3 0.0
01/08:00pm 22.0 17.9 -6.4 14 11.5 NNW 7 9 4 5 1018.0 1016.0 0.0
01/07:30pm 23.1 19.0 -6.3 13 12.1 NNW 7 9 4 5 1017.5 1015.6 0.0
01/07:00pm 24.3 20.2 -6.6 12 12.8 NNW 7 7 4 4 1017.1 1015.1 0.0
01/06:30pm 26.1 22.0 -7.1 10 13.9 NNW 7 9 4 5 1016.8 1014.8 0.0
01/06:00pm 28.1 23.9 -7.5 9 15.0 N 7 11 4 6 1016.5 1014.5 0.0
01/05:30pm 30.4 25.4 -7.7 8 16.3 NNE 11 17 6 9 1016.1 1014.1 0.0
01/05:00pm 31.5 26.5 -8.7 7 17.1 N 11 19 6 10 1015.9 1013.9 0.0
01/04:30pm 31.9 26.5 -8.6 7 17.3 N 13 17 7 9 1015.8 1013.8 0.0
01/04:00pm 31.7 26.7 -8.5 7 17.2 NE 11 20 6 11 1015.7 1013.7 0.0
01/03:30pm 31.7 25.9 -8.1 7 17.1 NNE 15 22 8 12 1015.7 1013.7 0.0
01/03:00pm 32.3 27.0 -7.1 7 17.3 NNW 13 20 7 11 1015.7 1013.7 0.0
01/02:30pm 31.6 26.0 -6.9 8 16.9 NNE 15 24 8 13 1016.0 1014.0 0.0
01/02:00pm 31.7 25.7 -6.7 8 16.9 N 17 26 9 14 1016.4 1014.4 0.0
01/01:30pm 32.3 27.1 -6.0 8 17.2 NE 13 26 7 14 1016.6 1014.6 0.0
01/01:00pm 30.8 26.3 -6.8 8 16.4 NE 9 22 5 12 1017.1 1015.1 0.0
01/12:30pm 31.0 26.9 -7.0 8 16.6 NNW 7 19 4 10 1017.3 1015.4 0.0
01/12:00pm 30.9 26.5 -6.1 9 16.4 SSE 9 19 5 10 1017.8 1015.9 0.0
01/11:30am 30.0 25.1 -6.7 9 16.0 ESE 11 19 6 10 1018.4 1016.4 0.0
01/11:00am 29.0 23.4 -6.0 10 15.3 SSE 15 20 8 11 1018.5 1016.5 0.0
01/10:30am 27.2 22.5 -4.7 12 14.0 SE 11 19 6 10 1019.0 1017.0 0.0
01/10:00am 25.6 20.5 -5.3 12 13.2 SE 13 19 7 10 1019.2 1017.3 0.0
01/09:30am 23.6 18.5 -5.4 14 12.2 SSE 13 19 7 10 1019.2 1017.3 0.0
01/09:00am 21.5 16.4 -5.6 16 11.1 S 13 20 7 11 1019.1 1017.1 0.0
01/08:30am 19.9 15.5 -5.9 17 10.4 S 9 17 5 9 1018.8 1016.8 0.0
01/08:00am 20.5 16.7 -5.9 16 10.7 SSE 6 9 3 5 1018.2 1016.2 0.0
01/07:30am 17.9 13.5 -5.6 19 9.3 SSW 9 13 5 7 1018.1 1016.9 0.0
01/07:00am 16.1 12.5 -3.7 25 8.0 SW 6 7 3 4 1017.6 1016.5 0.0
01/06:30am 14.5 10.8 -4.7 26 7.5 SW 6 9 3 5 1017.4 1016.3 0.0
01/06:00am 14.2 10.8 -5.0 26 7.4 W 4 6 2 3 1016.9 1015.7 0.0
01/05:30am 14.7 11.0 -5.0 25 7.7 W 6 6 3 3 1016.6 1015.4 0.0
01/05:00am 16.9 13.1 -5.7 21 8.8 SW 6 9 3 5 1016.7 1015.5 0.0
01/04:30am 19.6 15.8 -5.9 17 10.2 WSW 6 9 3 5 1016.5 1015.3 0.0
01/04:00am 18.6 14.8 -5.9 18 9.7 WNW 6 7 3 4 1016.2 1015.0 0.0
01/03:30am 17.3 13.8 -6.0 20 9.1 ESE 4 6 2 3 1016.1 1014.9 0.0
01/03:00am 20.1 14.5 -6.2 16 10.5 W 15 19 8 10 1016.2 1015.0 0.0
01/02:30am 20.3 15.1 -6.3 16 10.7 WNW 13 19 7 10 1016.2 1015.0 0.0
01/02:00am 20.6 15.0 -6.7 15 10.9 WNW 15 20 8 11 1016.3 1015.1 0.0
01/01:30am 20.7 14.7 -6.8 15 11.0 WNW 17 20 9 11 1016.5 1015.3 0.0
01/01:00am 21.2 15.2 -6.7 15 11.2 WNW 17 24 9 13 1016.7 1015.5 0.0
01/12:30am 21.4 15.4 -6.6 14 11.3 WNW 17 22 9 12 1016.8 1015.6 0.0
01/12:00am 21.9 15.9 -6.6 14 11.5 WNW 17 22 9 12 1016.9 1015.7 0.0
 
Date/Time
WST
Temp
°C
App
Temp
°C
Dew
Point
Rel
Hum
%
Delta-T
°C
Wind Press
QNH
hPa
Press
MSL
hPa
Rain
since 9 am
mm
Dir
 
Spd
km/h
Gust
km/h
Spd
kts
Gust
kts
31/11:30pm 22.1 16.5 -6.5 14 11.6 WNW 15 20 8 11 1016.9 1015.7 0.0
31/11:00pm 22.3 16.7 -6.4 14 11.7 NW 15 20 8 11 1017.1 1015.9 0.0
31/10:30pm 20.0 15.8 -7.4 15 10.7 NNW 7 15 4 8 1017.1 1015.9 0.0
31/10:00pm 20.3 16.2 -7.0 15 10.8 NNW 7 9 4 5 1017.1 1015.9 0.0
31/09:30pm 19.6 15.5 -6.6 16 10.4 NNW 7 9 4 5 1017.2 1016.1 0.0
31/09:00pm 20.3 16.4 -6.7 15 10.7 NNW 6 9 3 5 1017.1 1015.9 0.0
31/08:30pm 20.9 16.8 -6.6 15 11.0 NNW 7 9 4 5 1017.0 1015.8 0.0
31/08:00pm 21.5 17.6 -6.4 15 11.3 NNW 6 7 3 4 1016.7 1015.5 0.0
31/07:30pm 22.3 18.2 -6.9 13 11.8 NNW 7 9 4 5 1016.5 1015.3 0.0
31/07:00pm 23.8 19.8 -7.3 12 12.6 NNW 6 7 3 4 1016.2 1015.0 0.0
31/06:30pm 25.0 20.8 -7.3 11 13.3 NW 7 11 4 6 1015.9 1014.7 0.0
31/06:00pm 27.3 23.1 -7.5 9 14.6 NW 7 9 4 5 1015.7 1014.5 0.0
31/05:30pm 29.5 24.1 -8.2 8 15.9 NW 13 19 7 10 1015.4 1014.3 0.0
31/05:00pm 30.1 23.9 -8.5 7 16.3 NNW 17 26 9 14 1015.2 1014.0 0.0
31/04:30pm 30.9 25.5 -8.4 7 16.7 N 13 22 7 12 1015.2 1014.0 0.0
31/04:00pm 30.9 25.9 -8.2 7 16.7 NNW 11 19 6 10 1015.1 1013.9 0.0
31/03:30pm 31.3 27.6 -8.9 7 17.0 ESE 4 9 2 5 1014.9 1013.7 0.0
31/03:00pm 31.0 25.2 -9.0 7 16.9 N 15 24 8 13 1015.2 1014.0 0.0
31/02:30pm 30.7 24.9 -8.7 7 16.7 N 15 30 8 16 1015.4 1014.3 0.0
31/02:00pm 30.6 25.6 -8.3 7 16.5 NNE 11 22 6 12 1015.7 1014.5 0.0
31/01:30pm 30.0 25.3 -8.8 7 16.3 NE 9 19 5 10 1016.2 1015.0 0.0
31/01:00pm 30.5 25.4 -8.8 7 16.5 E 11 22 6 12 1016.6 1015.4 0.0
31/12:30pm 29.5 24.1 -8.7 8 16.0 NNE 13 22 7 12 1016.9 1015.7 0.0
31/12:00pm 29.4 24.4 -8.3 8 15.8 NNE 11 19 6 10 1017.3 1016.2 0.0
31/11:30am 29.1 24.5 -7.7 8 15.6 ESE 9 17 5 9 1017.8 1016.7 0.0
31/11:00am 28.0 24.0 -7.7 9 15.0 SSW 6 13 3 7 1018.4 1017.2 0.0
31/10:30am 27.4 23.0 -5.5 11 14.3 SSE 9 17 5 9 1018.8 1017.6 0.0
31/10:00am 25.6 21.3 -5.3 12 13.2 SE 9 17 5 9 1019.1 1018.0 0.0
31/09:30am 24.5 19.7 -5.8 13 12.8 SE 11 19 6 10 1019.2 1018.1 0.0
31/09:00am 23.4 18.6 -5.8 14 12.1 S 11 17 6 9 1019.3 1018.2 0.0
31/08:30am 21.7 17.2 -6.4 14 11.4 S 9 15 5 8 1019.1 1018.0 0.0
31/08:00am 19.4 15.5 -7.0 16 10.3 SW 6 9 3 5 1018.8 1017.6 0.0
31/07:30am 15.3 12.3 -4.9 24 7.9 WSW 2 2 1 1 1018.5 1017.3 0.0
31/07:00am 13.6 10.6 -5.6 26 7.3 WNW 2 4 1 2 1018.1 1016.9 0.0
31/06:30am 12.9 9.9 -5.5 27 6.9 ESE 2 4 1 2 1017.8 1016.7 0.0
31/06:00am 14.5 10.6 -6.5 23 7.9 SSW 6 6 3 3 1017.4 1016.3 0.0
31/05:30am 14.7 10.7 -7.1 21 8.1 SW 6 6 3 3 1017.1 1015.9 0.0
31/05:00am 16.8 13.6 -7.7 18 9.2 W 2 6 1 3 1016.8 1015.6 0.0
31/04:30am 16.3 12.3 -7.4 19 8.9 W 6 7 3 4 1016.7 1015.5 0.0
31/04:00am 18.1 14.1 -7.9 16 9.8 W 6 11 3 6 1016.6 1015.4 0.0
31/03:30am 18.3 15.0 -8.1 16 10.0 N 2 4 1 2 1016.6 1015.4 0.0
31/03:00am 18.0 14.7 -8.2 16 9.8 N 2 6 1 3 1016.6 1015.4 0.0
31/02:30am 18.2 14.0 -8.1 16 9.9 WNW 7 11 4 6 1016.8 1015.6 0.0
31/02:00am 19.2 14.6 -8.4 14 10.5 W 9 11 5 6 1017.0 1015.8 0.0
31/01:30am 19.5 13.7 -8.3 14 10.6 WNW 15 19 8 10 1017.3 1016.2 0.0
31/01:00am 19.4 13.7 -8.0 15 10.5 WNW 15 19 8 10 1017.4 1016.3 0.0
31/12:30am 19.3 14.0 -7.4 15 10.4 NW 13 17 7 9 1017.7 1016.6 0.0
31/12:00am 19.3 14.7 -8.3 14 10.5 NW 9 11 5 6 1017.8 1016.7 0.0
 
Date/Time
WST
Temp
°C
App
Temp
°C
Dew
Point
Rel
Hum
%
Delta-T
°C
Wind Press
QNH
hPa
Press
MSL
hPa
Rain
since 9 am
mm
Dir
 
Spd
km/h
Gust
km/h
Spd
kts
Gust
kts
30/11:30pm 18.7 14.0 -8.6 15 10.3 NNW 9 15 5 8 1018.1 1016.9 0.0
30/11:00pm 19.5 14.8 -8.7 14 10.7 N 9 11 5 6 1018.0 1016.8 0.0
30/10:30pm 19.4 14.7 -8.6 14 10.6 N 9 11 5 6 1018.2 1017.0 0.0
30/10:00pm 19.2 14.9 -8.5 14 10.5 N 7 9 4 5 1018.2 1017.0 0.0
30/09:30pm 20.5 15.1 -8.7 13 11.2 NNE 13 15 7 8 1018.4 1017.2 0.0
30/09:00pm 21.6 15.8 -8.8 12 11.7 NNE 15 17 8 9 1018.5 1017.3 0.0
30/08:30pm 20.1 16.0 -8.2 14 10.9 NNE 6 7 3 4 1018.5 1017.3 0.0
30/08:00pm 22.3 18.0 -8.7 12 12.1 NW 7 9 4 5 1018.4 1017.2 0.0
30/07:30pm 22.0 17.8 -7.4 13 11.7 WNW 7 7 4 4 1018.2 1017.0 0.0
30/07:00pm 22.9 18.7 -8.3 12 12.3 NW 7 7 4 4 1018.0 1016.8 0.0
30/06:30pm 25.1 21.1 -8.0 10 13.5 WNW 6 6 3 3 1017.7 1016.6 0.0
30/06:00pm 26.8 22.7 -8.8 9 14.5 NNW 6 7 3 4 1017.5 1016.4 0.0
30/05:30pm 29.3 25.0 -10.8 6 16.1 N 6 9 3 5 1017.3 1016.2 0.0
30/05:00pm 30.1 24.9 -10.7 6 16.6 NW 11 19 6 10 1017.1 1015.9 0.0
30/04:30pm 30.0 24.8 -10.6 6 16.5 N 11 19 6 10 1016.9 1015.7 0.0
30/04:00pm 31.1 27.2 -10.5 6 17.1 SSE 4 9 2 5 1016.7 1015.5 0.0
30/03:30pm 30.1 23.8 -10.7 6 16.6 NNE 17 26 9 14 1016.6 1015.4 0.0
30/03:00pm 30.8 26.6 -10.6 6 16.9 E 6 17 3 9 1016.6 1015.4 0.0
30/02:30pm 30.1 24.6 -10.3 6 16.5 NE 13 24 7 13 1016.9 1015.7 0.0
30/02:00pm 30.2 24.6 -10.5 6 16.6 NE 13 22 7 12 1017.0 1015.8 0.0
30/01:30pm 30.2 25.8 -10.6 6 16.6 NNW 7 15 4 8 1017.2 1016.1 0.0
30/01:00pm 29.5 24.3 -10.4 7 16.2 NNE 11 24 6 13 1017.8 1016.7 0.0
30/12:30pm 29.1 23.5 -10.5 7 16.0 NE 13 30 7 16 1018.2 1017.0 0.0

Other Formats:

Comma delimited format used in spreadsheet applications
http://www.bom.gov.au/fwo/IDW60801/IDW60801.99736.axf

JavaScript Object Notation format (JSON) in row-major order
http://www.bom.gov.au/fwo/IDW60801/IDW60801.99736.json